createdAt,value
2022-11-21T00:02:07.270Z,16.08
2022-11-21T00:07:09.165Z,16.58
2022-11-21T00:12:11.217Z,16.00
2022-11-21T00:17:13.017Z,13.00
2022-11-21T00:22:14.862Z,16.08
2022-11-21T00:27:16.715Z,15.65
2022-11-21T00:32:18.524Z,17.08
2022-11-21T00:37:20.478Z,17.48
2022-11-21T00:42:22.253Z,19.45
2022-11-21T00:47:24.009Z,15.52
2022-11-21T00:52:25.774Z,19.80
2022-11-21T00:57:27.572Z,20.63
2022-11-21T01:02:29.422Z,22.05
2022-11-21T01:07:31.396Z,25.38
2022-11-21T01:12:33.198Z,22.70
2022-11-21T01:17:35.079Z,18.02
2022-11-21T01:22:36.983Z,18.40
2022-11-21T01:27:38.817Z,19.98
2022-11-21T01:32:40.767Z,17.08
2022-11-21T01:37:42.588Z,18.00
2022-11-21T01:42:47.000Z,18.40
2022-11-21T01:47:48.801Z,21.00
2022-11-21T01:52:50.624Z,17.98
2022-11-21T01:57:52.559Z,17.17
2022-11-21T02:02:59.193Z,14.70
2022-11-21T02:08:09.565Z,16.90
2022-11-21T02:13:12.574Z,14.40
2022-11-21T02:18:14.440Z,8.75
2022-11-21T02:23:36.467Z,4.03
2022-11-21T02:28:38.335Z,1.52
2022-11-21T02:33:40.182Z,3.17
2022-11-21T02:38:42.084Z,3.00
2022-11-21T02:43:51.012Z,2.55
2022-11-21T02:48:53.156Z,2.80
2022-11-21T02:53:54.971Z,1.42
2022-11-21T02:58:56.778Z,1.58
2022-11-21T03:03:58.545Z,1.65
2022-11-21T03:09:00.348Z,2.80
2022-11-21T03:14:02.147Z,1.48
2022-11-21T03:19:04.292Z,1.27
2022-11-21T03:24:06.857Z,1.67
2022-11-21T03:29:08.675Z,2.00
2022-11-21T03:34:10.692Z,1.30
2022-11-21T03:39:12.567Z,1.40
2022-11-21T03:44:14.617Z,1.45
2022-11-21T03:49:17.122Z,1.20
2022-11-21T03:54:18.951Z,2.10
2022-11-21T03:59:21.128Z,2.83
2022-11-21T04:04:22.987Z,1.77
2022-11-21T04:09:24.804Z,1.38
2022-11-21T04:14:27.101Z,1.38
2022-11-21T04:19:29.501Z,3.58
2022-11-21T04:24:33.776Z,0.93
2022-11-21T04:29:35.783Z,0.70
2022-11-21T04:34:39.863Z,1.00
2022-11-21T04:39:41.912Z,3.60
2022-11-21T04:44:43.755Z,1.65
2022-11-21T04:49:45.502Z,1.23
2022-11-21T04:54:48.329Z,3.22
2022-11-21T04:59:50.337Z,1.50
2022-11-21T05:04:52.434Z,1.02
2022-11-21T05:09:54.571Z,0.80
2022-11-21T05:14:56.937Z,1.10
2022-11-21T05:19:58.715Z,0.70
2022-11-21T05:25:00.552Z,1.42
2022-11-21T05:30:02.479Z,0.93
2022-11-21T05:35:04.907Z,0.98
2022-11-21T05:40:08.052Z,0.35
2022-11-21T05:45:10.353Z,0.50
2022-11-21T05:50:12.334Z,0.50
2022-11-21T05:55:14.515Z,1.90
2022-11-21T06:00:17.662Z,0.60
2022-11-21T06:05:20.016Z,0.60
2022-11-21T06:10:21.993Z,1.35
2022-11-21T06:15:24.241Z,0.75
2022-11-21T06:20:26.193Z,3.78
2022-11-21T06:25:28.200Z,2.75
2022-11-21T06:30:30.588Z,5.45
2022-11-21T06:35:33.043Z,7.20
2022-11-21T06:40:35.243Z,5.65
2022-11-21T06:45:37.397Z,4.70
2022-11-21T06:50:39.427Z,3.42
2022-11-21T06:55:41.433Z,5.05
2022-11-21T07:00:44.565Z,3.22
2022-11-21T07:05:46.537Z,2.60
2022-11-21T07:11:10.261Z,2.90
2022-11-21T07:16:15.592Z,3.40
2022-11-21T07:21:17.384Z,2.00
2022-11-21T07:26:19.983Z,2.85
2022-11-21T07:31:21.959Z,3.15
2022-11-21T07:36:23.841Z,3.40
2022-11-21T07:41:25.676Z,2.63
2022-11-21T07:46:27.688Z,4.40
2022-11-21T07:51:29.474Z,4.25
2022-11-21T07:56:31.211Z,4.95
2022-11-21T08:01:33.030Z,3.88
2022-11-21T08:06:35.451Z,7.80
2022-11-21T08:11:37.439Z,9.48
2022-11-21T08:16:39.307Z,14.60
2022-11-21T08:21:41.219Z,10.90
2022-11-21T08:26:44.822Z,11.38
2022-11-21T08:31:46.712Z,15.05
2022-11-21T08:36:48.504Z,15.48
2022-11-21T08:42:05.673Z,12.80
2022-11-21T08:47:07.635Z,14.57
2022-11-21T08:52:09.596Z,13.23
2022-11-21T08:57:12.956Z,12.32
2022-11-21T09:02:14.855Z,14.63
2022-11-21T09:07:16.812Z,10.65
2022-11-21T09:12:19.045Z,11.45
2022-11-21T09:17:39.468Z,13.68
2022-11-21T09:22:41.634Z,14.13
2022-11-21T09:27:44.297Z,11.73
2022-11-21T09:32:46.322Z,14.55
2022-11-21T09:37:48.246Z,16.40
2022-11-21T09:43:18.312Z,14.77
2022-11-21T09:48:49.122Z,13.88
2022-11-21T09:54:00.001Z,13.75
2022-11-21T09:59:02.221Z,13.30
2022-11-21T10:04:05.049Z,16.85
2022-11-21T10:09:29.572Z,17.00
2022-11-21T10:14:52.247Z,12.70
2022-11-21T10:20:13.282Z,18.15
2022-11-21T10:25:26.667Z,15.13
2022-11-21T10:30:30.028Z,13.85
2022-11-21T10:35:45.932Z,13.52
2022-11-21T10:40:55.020Z,17.20
2022-11-21T10:45:56.994Z,20.35
2022-11-21T10:51:10.947Z,18.17
2022-11-21T10:56:22.196Z,19.15
2022-11-21T11:01:29.448Z,17.48
2022-11-21T11:06:32.140Z,16.17
2022-11-21T11:11:34.626Z,17.67
2022-11-21T11:16:41.463Z,18.25
2022-11-21T11:21:45.779Z,20.25
2022-11-21T11:26:48.626Z,20.23
2022-11-21T11:31:54.119Z,18.20
2022-11-21T11:37:20.854Z,20.27
2022-11-21T11:42:57.521Z,13.85
2022-11-21T11:48:12.283Z,20.25
2022-11-21T11:53:32.802Z,19.23
2022-11-21T11:58:34.912Z,20.63
2022-11-21T12:04:01.961Z,26.15
2022-11-21T12:09:34.991Z,18.23
2022-11-21T12:15:02.611Z,23.33
2022-11-21T12:20:18.189Z,20.63
2022-11-21T12:25:30.795Z,23.65
2022-11-21T12:30:52.846Z,23.63
2022-11-21T12:36:24.843Z,21.98
2022-11-21T12:41:55.848Z,28.13
2022-11-21T12:47:12.518Z,29.73
2022-11-21T12:52:52.615Z,21.88
2022-11-21T12:58:32.781Z,19.92
2022-11-21T13:03:51.079Z,18.90
2022-11-21T13:08:56.084Z,20.27
2022-11-21T13:14:25.777Z,22.98
2022-11-21T13:19:42.234Z,25.30
2022-11-21T13:24:45.313Z,22.55
2022-11-21T13:30:11.877Z,26.77
2022-11-21T13:35:16.793Z,34.72
2022-11-21T13:40:30.576Z,29.13
2022-11-21T13:45:52.910Z,30.52
2022-11-21T13:51:28.499Z,26.80
2022-11-21T13:57:07.826Z,33.58
2022-11-21T14:02:33.689Z,34.58
2022-11-21T14:07:38.178Z,31.13
2022-11-21T14:12:44.855Z,33.63
2022-11-21T14:17:57.404Z,34.22
2022-11-21T14:23:05.581Z,50.03
2022-11-21T14:28:16.719Z,70.53
2022-11-21T14:33:29.547Z,57.97
2022-11-21T14:38:40.157Z,37.45
2022-11-21T14:43:42.183Z,35.20
2022-11-21T14:48:44.104Z,35.75
2022-11-21T14:53:47.933Z,32.58
2022-11-21T14:58:51.797Z,34.72
2022-11-21T15:03:58.955Z,36.50
2022-11-21T15:14:50.680Z,31.15
2022-11-21T15:20:12.857Z,28.05
2022-11-21T15:25:17.448Z,29.00
2022-11-21T15:30:19.583Z,31.85
2022-11-21T15:35:49.214Z,34.63
2022-11-21T15:41:10.812Z,38.65
2022-11-21T15:46:22.897Z,36.67
2022-11-21T15:52:06.013Z,39.50
2022-11-21T15:57:03.181Z,46.28
2022-11-21T16:02:11.194Z,41.38
2022-11-21T16:07:13.083Z,44.67
2022-11-21T16:12:14.980Z,40.60
2022-11-21T16:17:16.868Z,36.33
2022-11-21T16:22:18.835Z,32.40
2022-11-21T16:27:20.633Z,37.88
2022-11-21T16:32:25.780Z,38.65
2022-11-21T16:37:27.563Z,38.88
2022-11-21T16:42:29.388Z,31.00
2022-11-21T16:47:31.291Z,33.75
2022-11-21T16:52:35.652Z,43.08
2022-11-21T16:57:37.557Z,33.58
2022-11-21T17:02:39.435Z,36.05
2022-11-21T17:07:41.394Z,40.17
2022-11-21T17:12:43.836Z,44.33
2022-11-21T17:17:45.683Z,28.17
2022-11-21T17:22:47.525Z,32.85
2022-11-21T17:27:49.455Z,37.67
2022-11-21T17:32:51.429Z,37.08
2022-11-21T17:37:53.484Z,40.33
2022-11-21T17:42:55.349Z,32.75
2022-11-21T17:47:57.443Z,37.65
2022-11-21T17:52:59.286Z,35.03
2022-11-21T17:58:01.068Z,40.78
2022-11-21T18:03:02.967Z,42.13
2022-11-21T18:08:04.963Z,35.83
2022-11-21T18:13:06.852Z,29.23
2022-11-21T18:18:09.077Z,31.45
2022-11-21T18:23:11.207Z,43.47
2022-11-21T18:28:13.109Z,39.42
2022-11-21T18:33:18.802Z,37.47
2022-11-21T18:38:46.954Z,40.60
2022-11-21T18:43:45.172Z,29.33
2022-11-21T18:49:02.386Z,34.47
2022-11-21T18:54:09.757Z,43.78
2022-11-21T18:59:11.954Z,33.38
2022-11-21T19:04:16.447Z,43.53
2022-11-21T19:09:19.048Z,30.50
2022-11-21T19:14:20.865Z,29.10
2022-11-21T19:19:38.250Z,30.17
2022-11-21T19:24:40.553Z,23.30
2022-11-21T19:29:42.643Z,22.70
2022-11-21T19:34:44.604Z,26.85
2022-11-21T19:39:46.528Z,26.20
2022-11-21T19:44:48.466Z,24.00
2022-11-21T19:49:50.822Z,30.30
2022-11-21T19:54:52.687Z,21.08
2022-11-21T19:59:54.527Z,22.20
2022-11-21T20:04:56.488Z,20.38
2022-11-21T20:09:58.484Z,19.77
2022-11-21T20:15:00.382Z,16.15
2022-11-21T20:20:02.201Z,15.93
2022-11-21T20:25:04.288Z,12.18
2022-11-21T20:30:07.101Z,13.10
2022-11-21T20:35:09.640Z,10.82
2022-11-21T20:40:12.117Z,9.68
2022-11-21T20:51:25.190Z,10.98
2022-11-21T20:56:02.976Z,10.32
2022-11-21T21:01:06.720Z,11.57
2022-11-21T21:06:11.556Z,16.27
2022-11-21T21:11:36.859Z,17.55
2022-11-21T21:16:38.359Z,15.60
2022-11-21T21:21:42.074Z,14.85
2022-11-21T21:26:46.710Z,19.27
2022-11-21T21:31:52.023Z,10.30
2022-11-21T21:36:54.836Z,9.82
2022-11-21T21:41:56.814Z,11.25
2022-11-21T21:47:01.160Z,14.23
2022-11-21T21:52:03.386Z,10.07
2022-11-21T21:57:05.360Z,13.27
2022-11-21T22:02:07.346Z,9.73
2022-11-21T22:07:09.291Z,12.85
2022-11-21T22:12:11.544Z,13.18
2022-11-21T22:17:16.067Z,15.23
2022-11-21T22:22:18.376Z,14.10
2022-11-21T22:27:20.369Z,11.70
2022-11-21T22:32:22.169Z,17.40
2022-11-21T22:37:24.253Z,19.85
2022-11-21T22:42:26.773Z,12.43
2022-11-21T22:47:29.037Z,12.95
2022-11-21T22:52:32.108Z,14.68
2022-11-21T22:57:34.648Z,14.98
2022-11-21T23:02:36.342Z,17.55
2022-11-21T23:07:38.188Z,16.40
2022-11-21T23:12:39.988Z,21.88
2022-11-21T23:17:41.763Z,19.08
2022-11-21T23:22:44.648Z,19.48
2022-11-21T23:27:46.529Z,20.08
2022-11-21T23:32:48.292Z,17.42
2022-11-21T23:37:50.174Z,21.83
2022-11-21T23:42:52.312Z,13.73
2022-11-21T23:47:54.181Z,16.67
2022-11-21T23:52:56.055Z,15.02
2022-11-21T23:57:57.936Z,14.93
